createdAt,value
2018-11-23T00:01:49.536Z,64.40
2018-11-23T00:03:54.491Z,65.20
2018-11-23T00:05:59.454Z,65.00
2018-11-23T00:08:16.585Z,70.70
2018-11-23T00:10:20.664Z,63.90
2018-11-23T00:12:48.960Z,62.60
2018-11-23T00:14:53.039Z,62.60
2018-11-23T00:16:57.117Z,67.10
2018-11-23T00:19:01.209Z,70.10
2018-11-23T00:21:50.917Z,69.00
2018-11-23T00:23:55.012Z,66.70
2018-11-23T00:25:59.094Z,65.10
2018-11-23T00:28:03.154Z,65.50
2018-11-23T00:30:07.530Z,65.50
2018-11-23T00:32:11.633Z,63.70
2018-11-23T00:34:15.787Z,63.60
2018-11-23T00:36:19.867Z,68.20
2018-11-23T00:38:23.944Z,66.00
2018-11-23T00:40:28.166Z,69.10
2018-11-23T00:42:32.228Z,64.50
2018-11-23T00:44:36.301Z,61.70
2018-11-23T00:46:40.354Z,66.90
2018-11-23T00:48:44.496Z,65.60
2018-11-23T00:50:48.558Z,63.90
2018-11-23T00:52:52.700Z,63.40
2018-11-23T00:54:56.776Z,63.80
2018-11-23T00:57:01.742Z,64.10
2018-11-23T00:59:05.896Z,66.00
2018-11-23T01:01:09.978Z,68.10
2018-11-23T01:03:14.050Z,62.70
2018-11-23T01:05:18.123Z,61.30
2018-11-23T01:07:22.266Z,62.40
2018-11-23T01:09:26.399Z,66.90
2018-11-23T01:11:30.493Z,65.00
2018-11-23T01:13:34.559Z,64.50
2018-11-23T01:15:39.495Z,66.20
2018-11-23T01:17:43.566Z,66.00
2018-11-23T01:19:47.628Z,70.00
2018-11-23T01:21:51.720Z,70.70
2018-11-23T01:23:55.777Z,69.70
2018-11-23T01:25:59.851Z,68.50
2018-11-23T01:28:04.149Z,65.80
2018-11-23T01:30:08.467Z,69.50
2018-11-23T01:32:12.551Z,66.40
2018-11-23T01:34:16.620Z,65.60
2018-11-23T01:36:20.694Z,66.40
2018-11-23T01:38:24.771Z,64.50
2018-11-23T01:40:28.843Z,64.90
2018-11-23T01:42:32.900Z,68.30
2018-11-23T01:44:37.869Z,64.90
2018-11-23T01:46:41.922Z,63.20
2018-11-23T01:48:45.994Z,63.40
2018-11-23T01:50:50.061Z,64.10
2018-11-23T01:52:54.116Z,64.60
2018-11-23T01:54:58.187Z,66.20
2018-11-23T01:57:02.245Z,71.60
2018-11-23T01:59:06.394Z,64.40
2018-11-23T02:01:10.452Z,63.00
2018-11-23T02:03:14.521Z,64.40
2018-11-23T02:05:18.592Z,63.90
2018-11-23T02:07:22.649Z,63.20
2018-11-23T02:09:26.729Z,65.00
2018-11-23T02:11:30.849Z,72.50
2018-11-23T02:13:34.914Z,67.50
2018-11-23T02:15:38.990Z,64.60
2018-11-23T02:17:43.040Z,64.10
2018-11-23T02:19:47.113Z,63.10
2018-11-23T02:21:51.198Z,62.60
2018-11-23T02:23:55.261Z,62.20
2018-11-23T02:25:59.347Z,66.10
2018-11-23T02:28:03.415Z,65.40
2018-11-23T02:30:07.926Z,66.10
2018-11-23T02:32:11.974Z,72.60
2018-11-23T02:34:16.039Z,69.00
2018-11-23T02:36:20.110Z,69.00
2018-11-23T02:38:24.169Z,67.30
2018-11-23T02:40:28.245Z,71.80
2018-11-23T02:42:32.331Z,70.50
2018-11-23T02:44:36.390Z,69.70
2018-11-23T02:46:40.470Z,73.00
2018-11-23T02:48:44.615Z,72.90
2018-11-23T02:50:48.716Z,66.60
2018-11-23T02:52:52.787Z,64.20
2018-11-23T02:54:56.967Z,69.30
2018-11-23T02:57:01.125Z,69.70
2018-11-23T02:59:05.787Z,66.80
2018-11-23T03:01:09.850Z,70.00
2018-11-23T03:03:14.005Z,71.20
2018-11-23T03:05:18.234Z,72.10
2018-11-23T03:07:22.382Z,70.00
2018-11-23T03:09:26.439Z,69.80
2018-11-23T03:11:30.566Z,67.10
2018-11-23T03:13:34.642Z,70.50
2018-11-23T03:15:38.702Z,64.50
2018-11-23T03:17:42.789Z,64.60
2018-11-23T03:19:46.862Z,71.40
2018-11-23T03:21:51.100Z,73.00
2018-11-23T03:23:55.617Z,70.00
2018-11-23T03:25:59.670Z,65.00
2018-11-23T03:28:03.750Z,66.20
2018-11-23T03:30:07.885Z,63.60
2018-11-23T03:32:12.060Z,63.00
2018-11-23T03:34:17.021Z,62.80
2018-11-23T03:36:21.171Z,63.50
2018-11-23T03:38:25.203Z,63.00
2018-11-23T03:40:29.277Z,64.40
2018-11-23T03:42:33.341Z,63.50
2018-11-23T03:44:37.414Z,63.00
2018-11-23T03:46:41.543Z,64.00
2018-11-23T03:48:45.601Z,65.10
2018-11-23T03:50:49.679Z,73.20
2018-11-23T03:52:53.740Z,67.00
2018-11-23T03:54:57.868Z,66.90
2018-11-23T03:57:01.929Z,74.00
2018-11-23T03:59:05.991Z,71.90
2018-11-23T04:01:10.070Z,75.00
2018-11-23T04:03:14.142Z,69.50
2018-11-23T04:05:18.270Z,66.70
2018-11-23T04:07:22.318Z,65.60
2018-11-23T04:09:26.376Z,69.20
2018-11-23T04:11:30.444Z,67.20
2018-11-23T04:13:34.507Z,63.30
2018-11-23T04:15:38.574Z,62.60
2018-11-23T04:17:42.642Z,62.30
2018-11-23T04:19:46.701Z,62.30
2018-11-23T04:21:50.775Z,63.10
2018-11-23T04:23:55.188Z,63.00
2018-11-23T04:25:59.265Z,70.30
2018-11-23T04:28:03.324Z,72.60
2018-11-23T04:30:07.632Z,71.40
2018-11-23T04:32:11.703Z,70.10
2018-11-23T04:34:15.837Z,64.30
2018-11-23T04:36:19.909Z,70.00
2018-11-23T04:38:24.046Z,67.60
2018-11-23T04:40:28.147Z,64.20
2018-11-23T04:42:32.227Z,69.80
2018-11-23T04:44:36.284Z,70.20
2018-11-23T04:46:40.366Z,65.30
2018-11-23T04:48:44.431Z,66.30
2018-11-23T04:50:48.506Z,71.70
2018-11-23T04:52:52.590Z,73.00
2018-11-23T04:54:56.729Z,67.90
2018-11-23T04:57:00.828Z,72.40
2018-11-23T04:59:05.059Z,69.40
2018-11-23T05:01:09.145Z,66.70
2018-11-23T05:03:13.216Z,69.60
2018-11-23T05:05:17.364Z,70.80
2018-11-23T05:07:21.515Z,70.70
2018-11-23T05:09:25.575Z,71.30
2018-11-23T05:11:29.631Z,64.70
2018-11-23T05:13:33.699Z,63.90
2018-11-23T05:15:37.755Z,65.50
2018-11-23T05:17:41.943Z,62.40
2018-11-23T05:19:46.025Z,63.70
2018-11-23T05:21:50.088Z,69.30
2018-11-23T05:23:54.161Z,69.50
2018-11-23T05:25:58.263Z,65.20
2018-11-23T05:28:02.352Z,70.50
2018-11-23T05:30:06.993Z,71.20
2018-11-23T05:32:11.056Z,66.70
2018-11-23T05:34:15.129Z,64.60
2018-11-23T05:36:19.186Z,67.80
2018-11-23T05:38:23.257Z,69.80
2018-11-23T05:40:27.310Z,68.30
2018-11-23T05:42:31.422Z,67.60
2018-11-23T05:44:35.556Z,72.60
2018-11-23T05:46:39.622Z,71.50
2018-11-23T05:48:43.697Z,68.40
2018-11-23T05:50:47.750Z,65.30
2018-11-23T05:52:51.807Z,64.60
2018-11-23T05:54:55.886Z,64.50
2018-11-23T05:56:59.950Z,63.00
2018-11-23T05:59:04.589Z,68.70
2018-11-23T06:01:08.684Z,62.50
2018-11-23T06:03:12.755Z,62.00
2018-11-23T06:05:16.813Z,64.20
2018-11-23T06:07:20.871Z,61.60
2018-11-23T06:09:24.931Z,61.50
2018-11-23T06:11:29.078Z,64.00
2018-11-23T06:13:33.133Z,67.00
2018-11-23T06:15:40.432Z,64.50
2018-11-23T06:17:42.235Z,63.10
2018-11-23T06:19:46.298Z,64.40
2018-11-23T06:21:50.383Z,64.20
2018-11-23T06:23:54.442Z,65.00
2018-11-23T06:25:58.525Z,65.30
2018-11-23T06:28:02.578Z,71.10
2018-11-23T06:30:06.898Z,72.00
2018-11-23T06:32:13.592Z,65.40
2018-11-23T06:34:17.740Z,68.40
2018-11-23T06:36:21.821Z,65.70
2018-11-23T06:38:25.867Z,63.30
2018-11-23T06:40:29.984Z,67.10
2018-11-23T06:42:41.969Z,66.30
2018-11-23T06:44:40.038Z,63.40
2018-11-23T06:46:44.112Z,63.00
2018-11-23T06:48:48.171Z,64.00
2018-11-23T06:50:52.612Z,64.80
2018-11-23T06:52:56.698Z,63.00
2018-11-23T06:55:00.772Z,66.50
2018-11-23T06:57:05.217Z,58.70
2018-11-23T06:59:09.267Z,64.20
2018-11-23T07:01:13.347Z,67.60
2018-11-23T07:03:17.422Z,68.80
2018-11-23T07:05:21.486Z,69.50
2018-11-23T07:07:25.569Z,68.30
2018-11-23T07:09:29.628Z,65.80
2018-11-23T07:11:33.691Z,65.20
2018-11-23T07:13:37.771Z,69.90
2018-11-23T07:15:41.835Z,65.70
2018-11-23T07:17:45.918Z,62.20
2018-11-23T07:19:49.993Z,59.70
2018-11-23T07:21:54.143Z,60.20
2018-11-23T07:23:58.215Z,60.70
2018-11-23T07:26:02.267Z,60.90
2018-11-23T07:28:06.546Z,60.50
2018-11-23T07:30:10.754Z,60.40
2018-11-23T07:32:14.869Z,60.30
2018-11-23T07:34:18.941Z,60.00
2018-11-23T07:36:22.996Z,59.90
2018-11-23T07:38:27.070Z,60.10
2018-11-23T07:41:09.182Z,60.10
2018-11-23T07:43:13.244Z,60.50
2018-11-23T07:45:17.322Z,60.60
2018-11-23T07:47:21.382Z,60.20
2018-11-23T07:49:25.463Z,60.40
2018-11-23T07:51:30.418Z,60.70
2018-11-23T07:53:34.481Z,60.90
2018-11-23T07:55:38.634Z,61.60
2018-11-23T07:57:42.683Z,61.30
2018-11-23T07:59:46.764Z,61.70
2018-11-23T08:01:50.884Z,62.20
2018-11-23T08:03:54.969Z,61.80
2018-11-23T08:05:59.038Z,61.00
2018-11-23T08:08:03.113Z,62.20
2018-11-23T08:10:06.627Z,60.90
2018-11-23T08:12:10.686Z,62.40
2018-11-23T08:14:14.748Z,61.50
2018-11-23T08:16:18.814Z,60.30
2018-11-23T08:18:22.967Z,61.90
2018-11-23T08:20:27.100Z,61.60
2018-11-23T08:22:31.172Z,63.20
2018-11-23T08:24:35.229Z,62.00
2018-11-23T08:26:39.403Z,62.20
2018-11-23T08:28:43.483Z,63.20
2018-11-23T08:30:47.580Z,63.30
2018-11-23T08:32:51.705Z,63.30
2018-11-23T08:34:55.766Z,62.10
2018-11-23T08:36:59.935Z,61.10
2018-11-23T08:39:05.806Z,60.90
2018-11-23T08:41:09.887Z,59.80
2018-11-23T08:43:13.953Z,57.60
2018-11-23T08:45:18.010Z,56.50
2018-11-23T08:47:22.082Z,58.40
2018-11-23T08:49:26.146Z,59.70
2018-11-23T08:51:30.225Z,58.30
2018-11-23T08:53:34.367Z,62.30
2018-11-23T08:55:39.388Z,60.60
2018-11-23T08:57:43.465Z,59.20
2018-11-23T08:59:47.540Z,59.00
2018-11-23T09:01:51.607Z,59.90
2018-11-23T09:03:55.665Z,58.60
2018-11-23T09:05:59.736Z,58.50
2018-11-23T09:08:04.212Z,63.60
2018-11-23T09:10:08.414Z,59.80
2018-11-23T09:12:12.561Z,59.70
2018-11-23T09:14:16.657Z,59.20
2018-11-23T09:16:20.712Z,59.10
2018-11-23T09:18:24.898Z,59.00
2018-11-23T09:20:29.052Z,60.00
2018-11-23T09:22:33.105Z,59.10
2018-11-23T09:24:37.182Z,60.00
2018-11-23T09:26:41.229Z,60.60
2018-11-23T09:28:45.310Z,60.00
2018-11-23T09:30:49.371Z,61.10
2018-11-23T09:32:53.471Z,60.40
2018-11-23T09:34:57.545Z,60.00
2018-11-23T09:37:01.609Z,59.90
2018-11-23T09:39:07.186Z,58.40
2018-11-23T09:41:11.273Z,56.00
2018-11-23T09:43:15.433Z,54.70
2018-11-23T09:45:19.576Z,54.20
2018-11-23T09:47:23.636Z,55.60
2018-11-23T09:49:27.735Z,55.30
2018-11-23T09:51:31.833Z,58.50
2018-11-23T09:53:35.870Z,54.70
2018-11-23T09:55:39.953Z,55.10
2018-11-23T09:57:44.021Z,54.50
2018-11-23T09:59:48.099Z,55.60
2018-11-23T10:01:52.189Z,55.60
2018-11-23T10:03:56.263Z,54.80
2018-11-23T10:06:01.146Z,55.50
2018-11-23T10:08:05.357Z,55.40
2018-11-23T10:10:09.500Z,60.60
2018-11-23T10:12:13.584Z,58.60
2018-11-23T10:14:17.653Z,58.80
2018-11-23T10:16:21.743Z,57.30
2018-11-23T10:18:50.227Z,56.40
2018-11-23T10:20:54.308Z,55.70
2018-11-23T10:22:58.380Z,58.80
2018-11-23T10:25:02.467Z,57.10
2018-11-23T10:27:06.550Z,56.60
2018-11-23T10:29:10.601Z,55.10
2018-11-23T10:31:14.700Z,54.40
2018-11-23T10:33:18.753Z,53.90
2018-11-23T10:35:22.935Z,55.00
2018-11-23T10:37:27.013Z,55.50
2018-11-23T10:39:31.154Z,57.30
2018-11-23T10:41:35.245Z,59.30
2018-11-23T10:43:47.911Z,59.00
2018-11-23T10:45:51.987Z,57.90
2018-11-23T10:47:56.153Z,57.20
2018-11-23T10:50:00.236Z,56.50
2018-11-23T10:52:04.665Z,55.90
2018-11-23T10:54:09.295Z,56.80
2018-11-23T10:56:13.400Z,59.50
2018-11-23T10:58:17.487Z,58.10
2018-11-23T11:00:22.455Z,55.00
2018-11-23T11:02:27.420Z,56.90
2018-11-23T11:04:32.351Z,51.90
2018-11-23T11:06:37.296Z,49.20
2018-11-23T11:08:41.379Z,51.50
2018-11-23T11:10:45.453Z,53.20
2018-11-23T11:12:49.623Z,50.00
2018-11-23T11:14:53.689Z,47.10
2018-11-23T11:16:57.775Z,45.10
2018-11-23T11:19:01.860Z,42.50
2018-11-23T11:21:05.925Z,42.30
2018-11-23T11:23:10.094Z,40.50
2018-11-23T11:25:14.162Z,42.40
2018-11-23T11:27:18.229Z,39.50
2018-11-23T11:29:22.314Z,35.50
2018-11-23T11:31:26.383Z,32.60
2018-11-23T11:33:30.473Z,31.40
2018-11-23T11:35:34.565Z,29.50
2018-11-23T11:37:38.644Z,28.80
2018-11-23T11:39:42.731Z,27.80
2018-11-23T11:41:46.806Z,27.40
2018-11-23T11:43:50.882Z,26.10
2018-11-23T11:45:54.963Z,25.70
2018-11-23T11:47:59.042Z,26.10
2018-11-23T11:50:04.253Z,26.00
2018-11-23T11:52:08.331Z,27.00
2018-11-23T11:54:12.439Z,26.20
2018-11-23T11:56:16.535Z,28.40
2018-11-23T11:58:20.597Z,28.40
2018-11-23T12:00:24.691Z,28.30
2018-11-23T12:02:28.759Z,29.00
2018-11-23T12:04:32.862Z,29.90
2018-11-23T12:06:36.949Z,29.70
2018-11-23T12:08:41.032Z,29.20
2018-11-23T12:10:45.122Z,30.20
2018-11-23T12:12:49.189Z,30.80
2018-11-23T12:14:53.263Z,30.10
2018-11-23T12:16:57.358Z,29.30
2018-11-23T12:19:01.429Z,30.00
2018-11-23T12:21:05.584Z,29.70
2018-11-23T12:23:09.662Z,30.00
2018-11-23T12:25:13.731Z,29.00
2018-11-23T12:27:17.815Z,29.90
2018-11-23T12:29:21.886Z,29.70
2018-11-23T12:31:26.060Z,29.50
2018-11-23T12:33:30.126Z,29.80
2018-11-23T12:35:34.263Z,30.00
2018-11-23T12:37:38.349Z,31.10
2018-11-23T12:39:42.529Z,33.70
2018-11-23T12:41:46.617Z,34.60
2018-11-23T12:43:50.700Z,35.30
2018-11-23T12:45:54.785Z,36.80
2018-11-23T12:47:58.872Z,37.40
2018-11-23T12:50:03.288Z,38.00
2018-11-23T12:52:07.372Z,39.20
2018-11-23T12:54:11.456Z,39.70
2018-11-23T12:56:16.424Z,40.20
2018-11-23T12:58:20.522Z,41.70
2018-11-23T13:00:48.960Z,41.30
2018-11-23T13:02:53.203Z,41.60
2018-11-23T13:04:57.273Z,41.20
2018-11-23T13:07:01.352Z,42.70
2018-11-23T13:09:06.387Z,43.60
2018-11-23T13:11:11.341Z,42.90
2018-11-23T13:13:15.431Z,43.00
2018-11-23T13:15:19.497Z,43.50
2018-11-23T13:17:23.576Z,43.80
2018-11-23T13:19:28.546Z,46.70
2018-11-23T13:21:32.613Z,46.50
2018-11-23T13:23:36.741Z,48.40
2018-11-23T13:25:40.819Z,47.30
2018-11-23T13:27:44.894Z,47.10
2018-11-23T13:29:48.968Z,45.90
2018-11-23T13:31:53.051Z,46.30
2018-11-23T13:33:57.148Z,46.40
2018-11-23T13:36:01.290Z,46.30
2018-11-23T13:38:05.379Z,46.90
2018-11-23T13:40:09.607Z,46.60
2018-11-23T13:42:13.791Z,46.10
2018-11-23T13:44:48.265Z,45.70
2018-11-23T13:46:52.335Z,46.10
2018-11-23T13:48:56.562Z,46.40
2018-11-23T13:51:00.657Z,46.20
2018-11-23T13:53:05.696Z,46.20
2018-11-23T13:55:09.863Z,46.50
2018-11-23T13:57:13.933Z,46.90
2018-11-23T13:59:48.303Z,47.10
2018-11-23T14:01:52.390Z,47.40
2018-11-23T14:03:56.478Z,47.60
2018-11-23T14:06:00.568Z,48.10
2018-11-23T14:08:04.714Z,49.00
2018-11-23T14:10:08.885Z,49.00
2018-11-23T14:12:12.978Z,49.00
2018-11-23T14:14:50.268Z,48.30
2018-11-23T14:16:54.354Z,49.40
2018-11-23T14:18:58.415Z,52.10
2018-11-23T14:21:02.523Z,52.40
2018-11-23T14:23:06.602Z,51.30
2018-11-23T14:25:11.322Z,51.70
2018-11-23T14:27:15.433Z,50.20
2018-11-23T14:29:50.013Z,49.90
2018-11-23T14:31:54.111Z,49.20
2018-11-23T14:33:58.199Z,50.20
2018-11-23T14:36:02.268Z,50.40
2018-11-23T14:38:06.438Z,50.40
2018-11-23T14:40:10.652Z,50.10
2018-11-23T14:42:14.751Z,50.30
2018-11-23T14:44:49.270Z,50.80
2018-11-23T14:46:53.366Z,50.60
2018-11-23T14:48:57.456Z,50.20
2018-11-23T14:51:01.618Z,50.20
2018-11-23T14:53:05.699Z,49.70
2018-11-23T14:55:09.788Z,49.70
2018-11-23T14:57:13.851Z,49.20
2018-11-23T14:59:48.261Z,49.30
2018-11-23T15:01:52.347Z,49.50
2018-11-23T15:03:56.521Z,49.60
2018-11-23T15:06:00.577Z,48.80
2018-11-23T15:08:04.855Z,49.70
2018-11-23T15:10:08.889Z,49.90
2018-11-23T15:12:12.956Z,50.70
2018-11-23T15:14:50.280Z,49.40
2018-11-23T15:16:54.360Z,49.00
2018-11-23T15:18:58.443Z,49.10
2018-11-23T15:21:02.501Z,48.80
2018-11-23T15:23:06.808Z,49.00
2018-11-23T15:25:11.058Z,49.10
2018-11-23T15:27:15.116Z,49.20
2018-11-23T15:29:19.201Z,49.50
2018-11-23T15:31:23.277Z,49.30
2018-11-23T15:33:28.263Z,49.50
2018-11-23T15:35:32.350Z,50.00
2018-11-23T15:37:36.419Z,50.90
2018-11-23T15:39:40.495Z,51.20
2018-11-23T15:41:44.569Z,51.40
2018-11-23T15:43:48.662Z,51.30
2018-11-23T15:45:52.744Z,51.20
2018-11-23T15:47:56.846Z,50.70
2018-11-23T15:50:00.879Z,51.20
2018-11-23T15:54:12.086Z,51.50
2018-11-23T15:56:16.158Z,51.80
2018-11-23T15:58:20.271Z,51.50
2018-11-23T16:00:24.439Z,51.50
2018-11-23T16:02:28.579Z,51.60
2018-11-23T16:04:39.215Z,52.00
2018-11-23T16:06:37.676Z,51.30
2018-11-23T16:08:41.859Z,51.90
2018-11-23T16:10:45.934Z,52.20
2018-11-23T16:12:50.015Z,52.40
2018-11-23T16:14:54.093Z,52.30
2018-11-23T16:16:58.140Z,52.50
2018-11-23T16:19:02.192Z,52.10
2018-11-23T16:21:06.278Z,52.50
2018-11-23T16:23:10.415Z,53.70
2018-11-23T16:25:14.485Z,54.00
2018-11-23T16:27:18.560Z,54.10
2018-11-23T16:29:22.620Z,53.50
2018-11-23T16:31:26.713Z,52.20
2018-11-23T16:33:30.782Z,52.20
2018-11-23T16:35:34.929Z,52.00
2018-11-23T16:37:39.011Z,52.00
2018-11-23T16:39:43.078Z,51.80
2018-11-23T16:41:47.148Z,52.10
2018-11-23T16:43:51.217Z,51.60
2018-11-23T16:45:55.429Z,51.60
2018-11-23T16:47:59.578Z,51.80
2018-11-23T16:50:03.889Z,51.40
2018-11-23T16:52:08.102Z,51.60
2018-11-23T16:54:12.176Z,51.60
2018-11-23T16:56:16.257Z,51.40
2018-11-23T16:58:50.600Z,51.60
2018-11-23T17:00:54.656Z,51.60
2018-11-23T17:02:58.733Z,51.60
2018-11-23T17:05:02.783Z,51.50
2018-11-23T17:07:12.757Z,51.80
2018-11-23T17:09:11.823Z,51.90
2018-11-23T17:11:15.887Z,51.90
2018-11-23T17:13:19.959Z,51.80
2018-11-23T17:15:25.052Z,51.70
2018-11-23T17:17:29.126Z,51.50
2018-11-23T17:19:33.204Z,51.80
2018-11-23T17:21:37.258Z,53.20
2018-11-23T17:23:41.425Z,52.00
2018-11-23T17:25:45.487Z,52.90
2018-11-23T17:27:49.553Z,52.00
2018-11-23T17:29:53.615Z,52.00
2018-11-23T17:31:57.662Z,52.00
2018-11-23T17:34:01.741Z,51.60
2018-11-23T17:36:05.825Z,52.00
2018-11-23T17:38:09.898Z,52.10
2018-11-23T17:40:13.982Z,52.00
2018-11-23T17:42:18.016Z,51.80
2018-11-23T17:44:22.113Z,52.00
2018-11-23T17:46:26.171Z,52.00
2018-11-23T17:48:30.262Z,52.10
2018-11-23T17:50:34.330Z,53.70
2018-11-23T17:52:39.296Z,53.70
2018-11-23T17:54:43.370Z,55.30
2018-11-23T17:56:50.977Z,57.20
2018-11-23T17:58:55.041Z,58.00
2018-11-23T18:00:59.125Z,57.80
2018-11-23T18:03:03.195Z,57.00
2018-11-23T18:05:08.187Z,55.70
2018-11-23T18:07:12.263Z,55.30
2018-11-23T18:09:16.330Z,53.70
2018-11-23T18:11:20.428Z,55.00
2018-11-23T18:13:24.505Z,53.80
2018-11-23T18:15:28.702Z,54.50
2018-11-23T18:17:32.763Z,56.60
2018-11-23T18:19:36.856Z,56.00
2018-11-23T18:21:40.917Z,58.00
2018-11-23T18:23:44.979Z,57.40
2018-11-23T18:25:49.085Z,54.10
2018-11-23T18:27:54.017Z,53.90
2018-11-23T18:29:58.079Z,54.50
2018-11-23T18:32:02.162Z,57.30
2018-11-23T18:34:06.409Z,58.70
2018-11-23T18:36:11.379Z,53.60
2018-11-23T18:38:15.471Z,56.60
2018-11-23T18:40:19.559Z,54.00
2018-11-23T18:42:24.543Z,55.20
2018-11-23T18:44:28.617Z,56.70
2018-11-23T18:46:32.693Z,57.10
2018-11-23T18:48:36.760Z,58.50
2018-11-23T18:50:40.857Z,57.40
2018-11-23T18:52:44.927Z,54.30
2018-11-23T18:54:48.983Z,57.20
2018-11-23T18:56:53.065Z,57.10
2018-11-23T18:58:57.129Z,57.90
2018-11-23T19:01:01.216Z,57.60
2018-11-23T19:03:05.661Z,58.10
2018-11-23T19:05:09.731Z,58.20
2018-11-23T19:07:13.824Z,56.00
2018-11-23T19:09:17.890Z,55.70
2018-11-23T19:11:21.959Z,55.40
2018-11-23T19:13:26.044Z,58.00
2018-11-23T19:15:30.122Z,59.40
2018-11-23T19:17:34.202Z,56.50
2018-11-23T19:19:38.317Z,56.70
2018-11-23T19:21:42.383Z,55.80
2018-11-23T19:23:46.481Z,56.00
2018-11-23T19:25:50.730Z,58.90
2018-11-23T19:27:54.891Z,58.40
2018-11-23T19:29:58.950Z,58.30
2018-11-23T19:32:03.015Z,58.40
2018-11-23T19:34:07.092Z,58.30
2018-11-23T19:36:11.242Z,58.20
2018-11-23T19:38:15.324Z,56.80
2018-11-23T19:40:19.402Z,57.40
2018-11-23T19:42:23.481Z,58.00
2018-11-23T19:44:27.570Z,55.90
2018-11-23T19:46:31.637Z,57.90
2018-11-23T19:48:35.796Z,56.10
2018-11-23T19:50:39.890Z,55.40
2018-11-23T19:52:44.103Z,57.00
2018-11-23T19:54:48.168Z,55.50
2018-11-23T19:56:52.243Z,55.30
2018-11-23T19:58:56.322Z,55.50
2018-11-23T20:01:00.387Z,57.10
2018-11-23T20:03:04.631Z,55.90
2018-11-23T20:05:08.802Z,57.80
2018-11-23T20:07:12.868Z,58.60
2018-11-23T20:09:17.034Z,60.20
2018-11-23T20:11:21.126Z,60.30
2018-11-23T20:13:25.192Z,58.60
2018-11-23T20:15:29.301Z,61.20
2018-11-23T20:17:33.377Z,59.80
2018-11-23T20:19:37.442Z,57.60
2018-11-23T20:21:41.535Z,60.20
2018-11-23T20:23:45.606Z,58.60
2018-11-23T20:25:49.686Z,58.00
2018-11-23T20:27:53.768Z,59.60
2018-11-23T20:29:57.843Z,58.00
2018-11-23T20:32:01.939Z,55.60
2018-11-23T20:34:06.111Z,58.20
2018-11-23T20:36:10.195Z,58.30
2018-11-23T20:38:14.296Z,59.20
2018-11-23T20:40:18.517Z,60.70
2018-11-23T20:42:22.624Z,57.70
2018-11-23T20:44:26.684Z,56.50
2018-11-23T20:46:30.772Z,57.30
2018-11-23T20:48:34.852Z,58.10
2018-11-23T20:50:38.924Z,55.40
2018-11-23T20:52:43.086Z,55.30
2018-11-23T20:54:47.170Z,55.30
2018-11-23T20:56:51.261Z,55.70
2018-11-23T20:58:55.358Z,58.40
2018-11-23T21:00:59.426Z,57.40
2018-11-23T21:03:04.502Z,56.20
2018-11-23T21:05:08.648Z,57.30
2018-11-23T21:07:12.716Z,56.20
2018-11-23T21:09:16.815Z,59.50
2018-11-23T21:11:20.893Z,56.40
2018-11-23T21:13:25.004Z,56.20
2018-11-23T21:15:29.058Z,57.00
2018-11-23T21:17:33.125Z,56.30
2018-11-23T21:19:37.219Z,56.70
2018-11-23T21:21:41.267Z,58.60
2018-11-23T21:23:45.393Z,57.10
2018-11-23T21:25:49.427Z,56.70
2018-11-23T21:27:53.503Z,56.50
2018-11-23T21:29:57.696Z,58.70
2018-11-23T21:32:01.798Z,56.80
2018-11-23T21:34:05.978Z,56.90
2018-11-23T21:36:10.049Z,56.70
2018-11-23T21:38:14.135Z,56.80
2018-11-23T21:40:18.366Z,58.40
2018-11-23T21:42:22.444Z,57.50
2018-11-23T21:44:26.547Z,57.10
2018-11-23T21:46:30.628Z,57.30
2018-11-23T21:48:34.707Z,57.50
2018-11-23T21:50:38.790Z,56.40
2018-11-23T21:52:42.857Z,57.30
2018-11-23T21:54:46.956Z,57.30
2018-11-23T21:56:51.013Z,57.70
2018-11-23T21:58:55.081Z,57.90
2018-11-23T22:00:59.157Z,61.70
2018-11-23T22:03:03.233Z,58.70
2018-11-23T22:05:07.358Z,57.10
2018-11-23T22:07:11.473Z,56.80
2018-11-23T22:09:15.549Z,57.40
2018-11-23T22:11:20.119Z,57.40
2018-11-23T22:13:24.183Z,57.70
2018-11-23T22:15:28.273Z,57.50
2018-11-23T22:17:32.339Z,57.40
2018-11-23T22:19:36.406Z,57.50
2018-11-23T22:21:40.491Z,57.50
2018-11-23T22:23:44.552Z,57.50
2018-11-23T22:25:48.635Z,58.00
2018-11-23T22:27:52.763Z,58.20
2018-11-23T22:29:56.830Z,58.40
2018-11-23T22:32:00.926Z,58.90
2018-11-23T22:34:04.990Z,58.20
2018-11-23T22:36:09.084Z,57.40
2018-11-23T22:38:13.149Z,57.40
2018-11-23T22:40:18.091Z,57.40
2018-11-23T22:42:22.235Z,58.70
2018-11-23T22:44:26.315Z,57.30
2018-11-23T22:46:30.392Z,59.00
2018-11-23T22:48:34.463Z,57.90
2018-11-23T22:50:38.522Z,56.90
2018-11-23T22:52:42.611Z,60.00
2018-11-23T22:54:46.677Z,58.40
2018-11-23T22:56:50.763Z,59.90
2018-11-23T22:58:55.540Z,59.00
2018-11-23T23:01:00.658Z,60.80
2018-11-23T23:03:05.074Z,59.80
2018-11-23T23:05:09.149Z,59.00
2018-11-23T23:07:13.232Z,57.90
2018-11-23T23:09:17.289Z,57.30
2018-11-23T23:11:21.365Z,57.00
2018-11-23T23:13:25.521Z,58.50
2018-11-23T23:15:29.586Z,57.40
2018-11-23T23:17:33.706Z,56.90
2018-11-23T23:19:37.732Z,56.60
2018-11-23T23:21:41.807Z,57.30
2018-11-23T23:23:45.878Z,57.70
2018-11-23T23:25:49.934Z,58.30
2018-11-23T23:27:54.019Z,58.80
2018-11-23T23:29:58.087Z,58.60
2018-11-23T23:32:02.244Z,58.50
2018-11-23T23:34:06.323Z,58.50
2018-11-23T23:36:10.388Z,57.20
2018-11-23T23:38:14.462Z,57.70
2018-11-23T23:40:18.616Z,58.00
2018-11-23T23:42:22.662Z,63.10
2018-11-23T23:44:26.751Z,60.10
2018-11-23T23:46:30.829Z,58.80
2018-11-23T23:48:34.960Z,58.40
2018-11-23T23:50:39.044Z,57.50
2018-11-23T23:52:43.083Z,57.40
2018-11-23T23:54:47.179Z,57.60
2018-11-23T23:56:51.226Z,60.10
2018-11-23T23:58:55.279Z,59.70
